createdAt,value
2019-01-11T00:00:18.418Z,9.13
2019-01-11T00:03:07.800Z,8.75
2019-01-11T00:05:48.254Z,6.95
2019-01-11T00:08:36.020Z,7.33
2019-01-11T00:11:16.410Z,11.33
2019-01-11T00:13:44.334Z,11.90
2019-01-11T00:16:28.458Z,8.10
2019-01-11T00:19:16.045Z,8.73
2019-01-11T00:21:56.568Z,10.30
2019-01-11T00:24:44.177Z,7.00
2019-01-11T00:27:12.207Z,10.03
2019-01-11T00:29:40.572Z,8.30
2019-01-11T00:32:08.494Z,14.43
2019-01-11T00:34:36.367Z,8.73
2019-01-11T00:37:04.417Z,9.58
2019-01-11T00:39:33.321Z,7.17
2019-01-11T00:42:01.210Z,6.28
2019-01-11T00:44:29.050Z,45.55
2019-01-11T00:46:56.971Z,11.83
2019-01-11T00:49:24.837Z,9.78
2019-01-11T00:51:52.764Z,7.62
2019-01-11T00:54:20.611Z,6.90
2019-01-11T00:56:48.630Z,7.10
2019-01-11T00:59:16.477Z,16.48
2019-01-11T01:01:44.574Z,13.15
2019-01-11T01:04:12.532Z,7.80
2019-01-11T01:06:40.458Z,8.68
2019-01-11T01:09:08.669Z,11.10
2019-01-11T01:11:56.043Z,22.62
2019-01-11T01:14:37.493Z,10.90
2019-01-11T01:17:05.623Z,15.10
2019-01-11T01:19:49.707Z,11.80
2019-01-11T01:22:17.754Z,8.65
2019-01-11T01:24:59.526Z,13.98
2019-01-11T01:27:46.878Z,16.77
2019-01-11T01:30:27.437Z,12.90
2019-01-11T01:33:15.930Z,12.53
2019-01-11T01:35:56.656Z,14.70
2019-01-11T01:38:44.481Z,21.73
2019-01-11T01:41:24.964Z,20.85
2019-01-11T01:44:12.400Z,13.62
2019-01-11T01:46:53.056Z,33.50
2019-01-11T01:49:40.454Z,46.37
2019-01-11T01:52:23.272Z,10.72
2019-01-11T01:55:03.986Z,8.95
2019-01-11T01:57:44.514Z,8.58
2019-01-11T02:00:31.924Z,11.70
2019-01-11T02:03:12.014Z,9.68
2019-01-11T02:05:59.425Z,14.23
2019-01-11T02:08:40.382Z,7.85
2019-01-11T02:11:27.815Z,10.25
2019-01-11T02:14:08.294Z,8.80
2019-01-11T02:16:55.615Z,13.30
2019-01-11T02:19:36.458Z,9.80
2019-01-11T02:22:23.932Z,10.40
2019-01-11T02:25:04.241Z,7.70
2019-01-11T02:27:51.637Z,13.15
2019-01-11T02:30:32.505Z,9.70
2019-01-11T02:33:24.862Z,8.00
2019-01-11T02:36:12.211Z,8.85
2019-01-11T02:38:54.132Z,11.18
2019-01-11T02:41:34.132Z,8.85
2019-01-11T02:44:21.516Z,9.18
2019-01-11T02:47:02.224Z,8.78
2019-01-11T02:49:49.604Z,9.73
2019-01-11T02:52:29.594Z,8.78
2019-01-11T02:54:57.658Z,10.63
2019-01-11T02:57:25.513Z,10.10
2019-01-11T02:59:53.494Z,10.28
2019-01-11T03:02:37.442Z,9.13
2019-01-11T03:05:25.452Z,10.15
2019-01-11T03:08:27.335Z,12.88
2019-01-11T03:11:14.941Z,13.08
2019-01-11T03:13:55.315Z,12.37
2019-01-11T03:16:36.316Z,12.18
2019-01-11T03:19:23.720Z,13.78
2019-01-11T03:22:04.445Z,13.70
2019-01-11T03:24:44.799Z,14.53
2019-01-11T03:27:32.138Z,15.13
2019-01-11T03:30:16.068Z,16.73
2019-01-11T03:33:03.485Z,12.13
2019-01-11T03:35:44.436Z,15.72
2019-01-11T03:38:31.983Z,11.90
2019-01-11T03:41:12.691Z,16.87
2019-01-11T03:44:00.079Z,14.15
2019-01-11T03:46:27.988Z,11.85
2019-01-11T03:49:15.620Z,7.92
2019-01-11T03:51:43.506Z,12.25
2019-01-11T03:54:30.865Z,11.28
2019-01-11T03:57:11.523Z,10.95
2019-01-11T03:59:58.917Z,13.08
2019-01-11T04:02:39.876Z,11.53
2019-01-11T04:05:27.249Z,12.75
2019-01-11T04:08:08.005Z,13.55
2019-01-11T04:10:49.196Z,13.20
2019-01-11T04:13:36.640Z,10.55
2019-01-11T04:16:17.413Z,12.70
2019-01-11T04:19:24.993Z,19.02
2019-01-11T04:22:25.556Z,16.45
2019-01-11T04:25:32.641Z,12.25
2019-01-11T04:28:13.461Z,10.95
2019-01-11T04:30:53.726Z,14.65
2019-01-11T04:33:33.738Z,17.30
2019-01-11T04:36:21.167Z,28.32
2019-01-11T04:39:02.394Z,14.90
2019-01-11T04:41:42.870Z,12.10
2019-01-11T04:44:30.300Z,16.32
2019-01-11T04:47:11.141Z,14.93
2019-01-11T04:49:58.525Z,16.67
2019-01-11T04:52:26.406Z,13.85
2019-01-11T04:55:14.592Z,20.90
2019-01-11T04:57:56.422Z,18.27
2019-01-11T05:00:43.906Z,21.02
2019-01-11T05:03:24.278Z,18.40
2019-01-11T05:06:11.849Z,17.32
2019-01-11T05:08:52.604Z,18.95
2019-01-11T05:11:39.994Z,19.73
2019-01-11T05:14:20.850Z,19.50
2019-01-11T05:17:08.275Z,21.20
2019-01-11T05:19:48.771Z,19.37
2019-01-11T05:22:36.108Z,21.20
2019-01-11T05:25:17.002Z,23.32
2019-01-11T05:28:04.332Z,21.20
2019-01-11T05:30:45.034Z,24.50
2019-01-11T05:33:32.598Z,23.95
2019-01-11T05:36:13.039Z,23.85
2019-01-11T05:39:00.363Z,21.65
2019-01-11T05:41:42.988Z,25.12
2019-01-11T05:44:10.841Z,29.60
2019-01-11T05:46:38.688Z,28.38
2019-01-11T05:49:26.044Z,23.12
2019-01-11T05:52:06.104Z,25.17
2019-01-11T05:54:53.526Z,39.05
2019-01-11T05:57:34.193Z,26.37
2019-01-11T06:00:22.078Z,23.65
2019-01-11T06:03:02.456Z,22.60
2019-01-11T06:05:49.819Z,24.40
2019-01-11T06:08:31.589Z,21.87
2019-01-11T06:11:18.956Z,26.40
2019-01-11T06:13:59.625Z,32.83
2019-01-11T06:16:27.462Z,27.80
2019-01-11T06:19:07.576Z,31.25
2019-01-11T06:21:35.458Z,30.43
2019-01-11T06:24:03.391Z,31.30
2019-01-11T06:26:50.914Z,36.10
2019-01-11T06:29:31.404Z,30.68
2019-01-11T06:31:59.334Z,32.48
2019-01-11T06:34:40.720Z,30.72
2019-01-11T06:37:20.959Z,26.55
2019-01-11T06:40:08.462Z,35.98
2019-01-11T06:42:48.867Z,29.45
2019-01-11T06:45:36.203Z,32.60
2019-01-11T06:51:23.606Z,52.45
2019-01-11T06:54:11.023Z,32.95
2019-01-11T06:56:51.978Z,38.25
2019-01-11T06:59:39.404Z,31.95
2019-01-11T07:02:20.254Z,44.73
2019-01-11T07:05:08.396Z,42.33
2019-01-11T07:07:49.352Z,39.20
2019-01-11T07:10:36.781Z,45.35
2019-01-11T07:13:17.417Z,48.65
2019-01-11T07:16:04.745Z,46.88
2019-01-11T07:18:45.645Z,47.83
2019-01-11T07:21:33.025Z,52.55
2019-01-11T07:24:13.605Z,51.77
2019-01-11T07:27:01.003Z,44.15
2019-01-11T07:29:41.783Z,42.48
2019-01-11T07:32:29.153Z,51.05
2019-01-11T07:35:10.543Z,49.88
2019-01-11T07:37:57.988Z,49.35
2019-01-11T07:40:38.195Z,51.45
2019-01-11T07:43:18.324Z,57.25
2019-01-11T07:46:05.717Z,54.88
2019-01-11T07:48:46.509Z,51.77
2019-01-11T07:51:33.895Z,42.83
2019-01-11T07:54:14.682Z,51.40
2019-01-11T07:57:02.144Z,45.45
2019-01-11T07:59:43.092Z,57.20
2019-01-11T08:02:30.406Z,49.27
2019-01-11T08:05:10.879Z,46.28
2019-01-11T08:07:38.820Z,38.02
2019-01-11T08:10:19.767Z,47.83
2019-01-11T08:13:00.625Z,46.35
2019-01-11T08:15:48.312Z,46.00
2019-01-11T08:18:16.581Z,38.98
2019-01-11T08:21:03.982Z,41.18
2019-01-11T08:23:45.919Z,43.15
2019-01-11T08:26:33.548Z,35.92
2019-01-11T08:29:13.934Z,41.75
2019-01-11T08:31:41.906Z,37.35
2019-01-11T08:34:22.993Z,43.25
2019-01-11T08:36:51.315Z,47.05
2019-01-11T08:39:19.305Z,43.63
2019-01-11T08:41:47.203Z,43.28
2019-01-11T08:44:15.146Z,39.63
2019-01-11T08:46:56.961Z,48.50
2019-01-11T08:49:44.571Z,47.65
2019-01-11T08:52:25.121Z,49.65
2019-01-11T08:54:53.121Z,45.28
2019-01-11T08:57:34.187Z,46.00
2019-01-11T09:00:21.593Z,43.63
2019-01-11T09:03:02.464Z,42.45
2019-01-11T09:05:49.828Z,35.50
2019-01-11T09:08:30.689Z,43.23
2019-01-11T09:11:18.333Z,51.53
2019-01-11T09:13:46.224Z,49.42
2019-01-11T09:16:20.656Z,42.58
2019-01-11T09:19:17.398Z,42.13
2019-01-11T09:22:04.979Z,41.23
2019-01-11T09:24:45.173Z,40.83
2019-01-11T09:27:32.618Z,43.38
2019-01-11T09:30:00.537Z,42.50
2019-01-11T09:32:28.522Z,39.30
2019-01-11T09:35:09.550Z,36.88
2019-01-11T09:37:37.530Z,38.45
2019-01-11T09:40:17.608Z,38.02
2019-01-11T09:43:05.016Z,39.35
2019-01-11T09:45:46.049Z,37.75
2019-01-11T09:48:33.449Z,40.85
2019-01-11T09:51:15.830Z,45.15
2019-01-11T09:54:03.363Z,40.52
2019-01-11T09:56:44.222Z,35.43
2019-01-11T09:59:24.492Z,39.25
2019-01-11T10:02:31.560Z,36.77
2019-01-11T10:05:12.138Z,40.45
2019-01-11T10:07:52.911Z,35.80
2019-01-11T10:10:40.535Z,40.10
2019-01-11T10:13:21.422Z,38.88
2019-01-11T10:16:08.827Z,40.03
2019-01-11T10:18:49.295Z,36.25
2019-01-11T10:21:36.741Z,40.80
2019-01-11T10:24:17.653Z,38.50
2019-01-11T10:27:05.105Z,33.65
2019-01-11T10:29:45.919Z,36.45
2019-01-11T10:32:33.443Z,39.48
2019-01-11T10:35:01.415Z,39.48
2019-01-11T10:37:49.085Z,36.35
2019-01-11T10:40:29.189Z,39.23
2019-01-11T10:43:16.607Z,33.28
2019-01-11T10:45:59.270Z,30.25
2019-01-11T10:48:46.931Z,34.90
2019-01-11T10:51:28.226Z,35.70
2019-01-11T10:54:35.333Z,39.03
2019-01-11T10:57:16.007Z,38.33
2019-01-11T10:59:57.283Z,42.85
2019-01-11T11:02:44.762Z,41.95
2019-01-11T11:05:26.157Z,40.50
2019-01-11T11:08:06.333Z,38.60
2019-01-11T11:10:53.832Z,42.83
2019-01-11T11:13:34.319Z,43.48
2019-01-11T11:16:02.785Z,43.92
2019-01-11T11:18:30.660Z,41.53
2019-01-11T11:20:58.661Z,49.55
2019-01-11T11:23:26.606Z,38.67
2019-01-11T11:26:14.066Z,46.68
2019-01-11T11:28:54.259Z,43.45
2019-01-11T11:31:23.209Z,34.15
2019-01-11T11:34:05.208Z,44.80
2019-01-11T11:36:52.606Z,42.70
2019-01-11T11:39:32.962Z,47.55
2019-01-11T11:42:00.911Z,47.00
2019-01-11T11:44:41.291Z,45.35
2019-01-11T11:47:28.664Z,47.75
2019-01-11T11:50:09.371Z,47.05
2019-01-11T11:52:56.932Z,44.88
2019-01-11T11:55:37.857Z,43.25
2019-01-11T11:58:05.967Z,49.33
2019-01-11T12:00:46.307Z,35.98
2019-01-11T12:03:33.692Z,40.45
2019-01-11T12:06:14.399Z,44.88
2019-01-11T12:08:55.334Z,44.20
2019-01-11T12:11:42.747Z,39.42
2019-01-11T12:14:23.279Z,44.40
2019-01-11T12:17:04.547Z,43.90
2019-01-11T12:19:44.789Z,43.38
2019-01-11T12:22:32.179Z,38.48
2019-01-11T12:25:12.859Z,47.48
2019-01-11T12:28:00.365Z,46.02
2019-01-11T12:30:42.894Z,42.08
2019-01-11T12:33:30.435Z,47.75
2019-01-11T12:36:11.272Z,42.00
2019-01-11T12:38:58.660Z,41.63
2019-01-11T12:41:39.978Z,44.13
2019-01-11T12:44:20.881Z,50.05
2019-01-11T12:47:08.737Z,34.75
2019-01-11T12:49:49.023Z,45.03
2019-01-11T12:52:36.439Z,42.62
2019-01-11T12:55:17.581Z,35.85
2019-01-11T12:58:05.281Z,42.43
2019-01-11T13:00:45.656Z,39.08
2019-01-11T13:03:33.183Z,36.98
2019-01-11T13:06:01.193Z,43.02
2019-01-11T13:08:41.586Z,43.78
2019-01-11T13:11:21.669Z,46.28
2019-01-11T13:14:09.108Z,38.33
2019-01-11T13:16:49.712Z,42.70
2019-01-11T13:19:37.277Z,47.03
2019-01-11T13:22:18.026Z,49.53
2019-01-11T13:25:06.070Z,43.42
2019-01-11T13:27:47.781Z,47.70
2019-01-11T13:30:36.380Z,44.53
2019-01-11T13:33:17.581Z,43.17
2019-01-11T13:39:15.422Z,45.55
2019-01-11T13:42:03.326Z,46.63
2019-01-11T13:44:45.292Z,46.05
2019-01-11T13:47:13.211Z,41.45
2019-01-11T13:49:41.232Z,45.78
2019-01-11T13:52:09.212Z,40.28
2019-01-11T13:54:50.481Z,46.37
2019-01-11T13:57:37.955Z,54.80
2019-01-11T14:00:18.720Z,52.13
2019-01-11T14:03:06.509Z,49.23
2019-01-11T14:05:46.879Z,47.85
2019-01-11T14:11:28.404Z,46.53
2019-01-11T14:13:56.335Z,45.23
2019-01-11T14:16:24.399Z,44.25
2019-01-11T14:19:11.988Z,44.70
2019-01-11T14:21:39.928Z,45.95
2019-01-11T14:24:28.447Z,46.00
2019-01-11T14:26:56.385Z,45.52
2019-01-11T14:29:24.369Z,53.25
2019-01-11T14:32:05.466Z,40.65
2019-01-11T14:34:53.188Z,48.92
2019-01-11T14:37:33.711Z,53.13
2019-01-11T14:40:22.092Z,46.55
2019-01-11T14:43:03.138Z,46.15
2019-01-11T14:45:51.555Z,50.12
2019-01-11T14:48:32.163Z,51.02
2019-01-11T14:51:19.528Z,50.60
2019-01-11T14:54:00.691Z,55.75
2019-01-11T14:56:28.706Z,55.95
2019-01-11T14:59:12.745Z,38.45
2019-01-11T15:01:53.773Z,48.75
2019-01-11T15:04:41.233Z,49.23
2019-01-11T15:07:09.295Z,52.05
2019-01-11T15:09:38.033Z,51.23
2019-01-11T15:12:19.802Z,45.80
2019-01-11T15:14:47.782Z,54.35
2019-01-11T15:17:29.991Z,50.85
2019-01-11T15:20:17.960Z,50.67
2019-01-11T15:22:58.291Z,42.27
2019-01-11T15:25:45.890Z,55.48
2019-01-11T15:28:27.000Z,55.25
2019-01-11T15:31:14.491Z,45.40
2019-01-11T15:33:54.723Z,46.02
2019-01-11T15:36:36.692Z,49.73
2019-01-11T15:39:16.925Z,50.10
2019-01-11T15:42:04.648Z,46.85
2019-01-11T15:44:32.649Z,55.28
2019-01-11T15:47:20.358Z,50.12
2019-01-11T15:50:00.824Z,50.52
2019-01-11T15:52:33.336Z,50.30
2019-01-11T15:54:58.997Z,46.40
2019-01-11T15:57:46.632Z,48.58
2019-01-11T16:00:19.644Z,42.75
2019-01-11T16:03:01.715Z,40.78
2019-01-11T16:05:29.796Z,34.73
2019-01-11T16:08:05.426Z,37.88
2019-01-11T16:11:15.170Z,40.85
2019-01-11T16:14:08.384Z,37.10
2019-01-11T16:17:16.209Z,35.20
2019-01-11T16:19:44.440Z,29.95
2019-01-11T16:22:12.455Z,28.35
2019-01-11T16:24:40.450Z,32.83
2019-01-11T16:27:08.557Z,36.10
2019-01-11T16:29:56.258Z,26.45
2019-01-11T16:32:36.933Z,37.15
2019-01-11T16:35:25.149Z,32.20
2019-01-11T16:38:06.298Z,26.40
2019-01-11T16:40:53.787Z,27.85
2019-01-11T16:43:34.780Z,31.82
2019-01-11T16:46:02.911Z,27.80
2019-01-11T16:48:43.541Z,31.25
2019-01-11T16:51:11.566Z,30.35
2019-01-11T16:53:52.416Z,32.83
2019-01-11T16:56:39.802Z,29.25
2019-01-11T16:59:08.030Z,32.15
2019-01-11T17:01:55.777Z,29.75
2019-01-11T17:04:36.394Z,26.97
2019-01-11T17:07:23.816Z,31.20
2019-01-11T17:10:04.607Z,32.58
2019-01-11T17:12:52.808Z,27.48
2019-01-11T17:15:33.176Z,29.67
2019-01-11T17:18:20.949Z,29.57
2019-01-11T17:21:02.646Z,29.40
2019-01-11T17:23:30.840Z,28.45
2019-01-11T17:25:59.071Z,25.62
2019-01-11T17:28:27.269Z,28.12
2019-01-11T17:30:55.512Z,28.15
2019-01-11T17:33:23.848Z,30.25
2019-01-11T17:35:52.016Z,27.62
2019-01-11T17:38:20.332Z,30.72
2019-01-11T17:40:48.534Z,30.57
2019-01-11T17:43:16.625Z,31.48
2019-01-11T17:45:44.718Z,31.10
2019-01-11T17:48:13.008Z,28.50
2019-01-11T17:50:41.347Z,29.05
2019-01-11T17:53:29.077Z,27.30
2019-01-11T17:56:09.675Z,27.40
2019-01-11T17:58:57.582Z,27.95
2019-01-11T18:01:38.256Z,29.85
2019-01-11T18:04:06.318Z,24.80
2019-01-11T18:06:34.414Z,27.27
2019-01-11T18:09:04.999Z,24.27
2019-01-11T18:11:35.160Z,28.02
2019-01-11T18:14:03.594Z,24.57
2019-01-11T18:16:31.602Z,27.37
2019-01-11T18:18:59.670Z,25.37
2019-01-11T18:21:27.713Z,25.08
2019-01-11T18:23:56.020Z,28.07
2019-01-11T18:26:25.123Z,27.95
2019-01-11T18:28:53.289Z,23.02
2019-01-11T18:31:21.464Z,25.95
2019-01-11T18:33:49.733Z,27.00
2019-01-11T18:36:17.898Z,27.95
2019-01-11T18:38:45.994Z,30.02
2019-01-11T18:41:14.203Z,28.38
2019-01-11T18:44:01.976Z,27.15
2019-01-11T18:46:42.482Z,22.55
2019-01-11T18:49:30.933Z,24.32
2019-01-11T18:52:09.724Z,20.10
2019-01-11T18:54:37.747Z,24.67
2019-01-11T18:57:19.905Z,22.58
2019-01-11T19:00:11.168Z,31.05
2019-01-11T19:02:39.350Z,25.68
2019-01-11T19:05:27.458Z,28.25
2019-01-11T19:08:08.103Z,25.30
2019-01-11T19:10:55.639Z,29.40
2019-01-11T19:13:36.323Z,28.77
2019-01-11T19:16:23.958Z,31.25
2019-01-11T19:19:05.186Z,32.03
2019-01-11T19:21:46.484Z,22.87
2019-01-11T19:24:34.084Z,31.17
2019-01-11T19:27:15.001Z,28.98
2019-01-11T19:30:03.341Z,24.82
2019-01-11T19:32:43.873Z,27.15
2019-01-11T19:35:24.815Z,27.42
2019-01-11T19:38:12.458Z,30.57
2019-01-11T19:40:40.759Z,30.15
2019-01-11T19:43:28.470Z,31.42
2019-01-11T19:46:09.225Z,23.15
2019-01-11T19:48:57.722Z,27.00
2019-01-11T19:51:38.368Z,27.17
2019-01-11T19:54:06.729Z,26.52
2019-01-11T19:56:47.318Z,34.98
2019-01-11T19:59:36.278Z,28.80
2019-01-11T20:02:18.556Z,29.85
2019-01-11T20:05:06.785Z,26.52
2019-01-11T20:07:34.995Z,24.57
2019-01-11T20:10:04.773Z,23.60
2019-01-11T20:12:33.195Z,27.25
2019-01-11T20:15:01.402Z,27.15
2019-01-11T20:17:45.431Z,29.42
2019-01-11T20:20:13.996Z,25.82
2019-01-11T20:22:42.356Z,24.35
2019-01-11T20:25:14.619Z,24.85
2019-01-11T20:27:42.907Z,31.30
2019-01-11T20:30:17.888Z,26.75
2019-01-11T20:32:47.146Z,28.90
2019-01-11T20:35:15.646Z,33.25
2019-01-11T20:37:44.585Z,25.02
2019-01-11T20:40:32.383Z,27.07
2019-01-11T20:43:00.457Z,24.40
2019-01-11T20:45:28.627Z,27.67
2019-01-11T20:47:56.777Z,27.45
2019-01-11T20:50:25.635Z,25.40
2019-01-11T20:52:55.004Z,26.95
2019-01-11T20:55:23.512Z,26.77
2019-01-11T20:58:04.342Z,27.93
2019-01-11T21:00:52.106Z,30.00
2019-01-11T21:03:32.834Z,28.42
2019-01-11T21:06:20.736Z,28.98
2019-01-11T21:09:01.645Z,27.42
2019-01-11T21:11:49.473Z,29.87
2019-01-11T21:14:17.678Z,27.98
2019-01-11T21:16:45.997Z,32.78
2019-01-11T21:19:27.532Z,29.48
2019-01-11T21:22:08.719Z,26.68
2019-01-11T21:24:49.879Z,29.67
2019-01-11T21:27:18.086Z,28.30
2019-01-11T21:29:47.404Z,26.55
2019-01-11T21:32:15.699Z,26.57
2019-01-11T21:34:43.958Z,29.50
2019-01-11T21:37:24.331Z,27.75
2019-01-11T21:43:53.479Z,30.20
2019-01-11T21:46:34.631Z,26.55
2019-01-11T21:49:02.692Z,25.32
2019-01-11T21:51:30.840Z,24.10
2019-01-11T21:54:18.390Z,25.75
2019-01-11T21:56:59.339Z,23.10
2019-01-11T21:59:46.835Z,28.98
2019-01-11T22:02:28.019Z,22.62
2019-01-11T22:05:15.946Z,22.02
2019-01-11T22:07:43.991Z,24.05
2019-01-11T22:10:31.598Z,27.85
2019-01-11T22:13:12.986Z,27.55
2019-01-11T22:16:00.682Z,23.98
2019-01-11T22:18:29.027Z,25.95
2019-01-11T22:21:17.718Z,26.48
2019-01-11T22:24:03.102Z,23.25
2019-01-11T22:26:48.264Z,25.77
2019-01-11T22:29:28.553Z,28.70
2019-01-11T22:32:16.498Z,24.23
2019-01-11T22:34:57.219Z,27.07
2019-01-11T22:37:44.967Z,29.87
2019-01-11T22:40:17.764Z,25.85
2019-01-11T22:42:47.644Z,25.40
2019-01-11T22:45:16.737Z,23.77
2019-01-11T22:48:04.896Z,22.65
2019-01-11T22:50:33.382Z,26.50
2019-01-11T22:53:13.829Z,25.65
2019-01-11T22:55:41.825Z,25.32
2019-01-11T22:58:26.730Z,25.70
2019-01-11T23:04:38.600Z,21.30
2019-01-11T23:07:47.689Z,24.90
2019-01-11T23:11:17.545Z,26.85
2019-01-11T23:13:46.128Z,28.85
2019-01-11T23:17:16.354Z,27.32
2019-01-11T23:19:57.306Z,27.65
2019-01-11T23:22:45.452Z,26.37
2019-01-11T23:25:26.497Z,27.20
2019-01-11T23:27:54.862Z,27.58
2019-01-11T23:30:25.259Z,23.87
2019-01-11T23:33:12.848Z,25.82
2019-01-11T23:35:54.327Z,24.45
2019-01-11T23:38:42.006Z,24.72
2019-01-11T23:41:22.976Z,24.00
2019-01-11T23:43:51.123Z,26.65
2019-01-11T23:46:19.093Z,23.92
2019-01-11T23:48:47.255Z,21.45
2019-01-11T23:51:15.504Z,26.50
2019-01-11T23:53:54.257Z,24.27
2019-01-11T23:56:41.933Z,23.15
2019-01-11T23:59:21.982Z,23.40
